Aérodrome :
LOGIN :

S'inscrire | Disclaimer

   EN    FR    IT 

 










Légende :    VFR   VFR Marginal   IFR   IFR Intensif   IFR Très Intensif
Visi : 
Plafond : 
>= 8 km
>= 3000ft
5 à 8 km
1000 à 3000 ft
1500m à 5 km
500 à 1000 ft
800 à 1500m
200 à 500 ft
< 800m
< 200 ft
Symboles :   Orages  Brouillard  Fortes neiges  Fortes précipitations  Vent > 20 kt
SIGMETs :   Divers  Orages  Givrage  Turbulence  Onde Orograph.  Cendres Volcan.







- Altitude de l'aérodrome : 375 ft
- Code IATA : MST


EHBK - Maastricht Aachen

DERNIER METAR :
  • 172155Z AUTO 36004KT 320V030 7000 NSC 13/12 Q1021

METARs EXPIRÉS :
  • 172125Z AUTO 35004KT 7000 NSC 13/12 Q1021
  • 172055Z AUTO 36004KT 310V030 9000 NSC 14/12 Q1021 NOSIG
  • 172025Z AUTO 01005KT 9999 NSC 14/12 Q1021 NOSIG
  • 171955Z AUTO 02004KT 9999 NSC 14/12 Q1020 NOSIG
  • 171925Z AUTO 36005KT 9999 NSC 15/12 Q1020 NOSIG

TAF TAF EHBK
Valide du 17 à 18h jusqu'au 19 à 00h UTC


171641Z 1718/1824 01004KT CAVOK
BECMG 1801/1804 4000 BR BKN012
PROB40 1803/1809 2000 BKN006
BECMG 1808/1811 03010KT 9999 NSW BKN020
BECMG 1817/1820 04005KT
Pas de NOTAMs connus pour ce terrain.



MET'MAP, la Météo Aéronautique d'un coup d'oeil ! - Copyright ORBIFLY Décembre 2007 - Disclaimer

ORBIFLY MET'MAP TEAM :

Programmation & Développement : Alexandra Zaïnal
Conception & Développement : Baudouin d'Aumeries
Co-Programmation & Développement : Marc-Olivier Méhu
Soutien technique & logistique : Manuel Goepfert

Contact : metmap@orbifly.com




SOURCES & CREDITS :

   NOAA